KGUS

Grissom ARB Airport

Peru, Indiana, USA
METAR KGUS 180156Z AUTO 06004KT 10SM FEW041 SCT130 BKN170 22/22 A2997 RMK AO2 SLP147 T02210221 $
Observed Flight Rules
Aug-18 @ 01:56 UTC (32 minutes ago) Visual Flight Rules
Wind Visibility Clouds
60° at 4 knots 10 miles
  • Few at 4,100' AGL
  • Scattered at 13,000' AGL
  • Broken at 17,000' AGL
Temperatures Readings
Current 22°C / 72°F
Dewpoint 22°C / 72°F
Humidity 100%
Altimeter 29.97" Hg
Pressure 1014.7 hPa
Elevation 247
METAR KGUS 180156Z AUTO 06004KT 10SM FEW041 SCT130 BKN170 22/22 A2997 RMK AO2 SLP147 T02210221 $
Observed Flight Rules
Aug-18 @ 01:56 UTC
(32 minutes ago)
VFR
Wind Visibility
60° at 4 knots 10 miles
Clouds
  • Few at 4,100' AGL
  • Scattered at 13,000' AGL
  • Broken at 17,000' AGL
Temperature Dewpoint
22°C / 72°F 22°C / 72°F
Humidity Altimeter Pressure
100% 29.97" Hg 1014.7 hPa